Time;durP1;ratioP1;P1;durP2;ratioP2;P2;SDS_P1;SDS_P2;PMS_P1;PMS_P2;Temp;Humidity;BMP_temperature;BMP_pressure;BME280_temperature;BME280_humidity;BME280_pressure;Samples;Min_cycle;Max_cycle;Signal;HPM_P1;HPM_P2
2022/05/08 00:02:09;;;;;;;6.38;2.30;;;;;;;11.10;48.21;95913.50;5066110;28;20055;-74
2022/05/08 00:04:35;;;;;;;6.40;2.40;;;;;;;11.05;47.93;95915.84;5048197;28;20031;-74
2022/05/08 00:07:00;;;;;;;5.07;2.17;;;;;;;10.99;48.31;95915.50;5048106;28;20024;-73
2022/05/08 00:09:25;;;;;;;4.45;2.45;;;;;;;10.96;48.58;95907.78;5066216;28;20013;-74
2022/05/08 00:11:52;;;;;;;6.97;2.90;;;;;;;10.95;48.68;95907.97;5047935;28;20032;-72
2022/05/08 00:14:18;;;;;;;8.35;2.60;;;;;;;10.84;48.84;95909.97;5031585;28;20074;-73
2022/05/08 00:16:43;;;;;;;6.25;2.33;;;;;;;10.81;49.19;95907.63;5031302;28;20024;-75
2022/05/08 00:19:08;;;;;;;4.68;2.30;;;;;;;10.70;49.18;95905.28;5066183;28;20029;-74
2022/05/08 00:21:34;;;;;;;10.55;2.72;;;;;;;10.63;49.56;95907.78;5048126;28;20074;-74
2022/05/08 00:23:59;;;;;;;4.78;2.65;;;;;;;10.62;49.72;95903.41;5065661;28;20028;-73
2022/05/08 00:26:25;;;;;;;7.90;2.50;;;;;;;10.57;49.64;95911.97;5065888;28;20025;-74
2022/05/08 00:28:50;;;;;;;3.58;2.35;;;;;;;10.56;49.69;95909.44;5065482;28;20070;-73
2022/05/08 00:31:16;;;;;;;5.18;2.67;;;;;;;10.57;49.67;95908.44;5066173;28;20024;-74
2022/05/08 00:33:41;;;;;;;3.97;2.72;;;;;;;10.51;49.71;95909.94;5065185;28;20035;-73
2022/05/08 00:36:07;;;;;;;4.25;2.70;;;;;;;10.47;49.62;95919.31;5047573;28;20028;-74
2022/05/08 00:38:32;;;;;;;7.18;2.85;;;;;;;10.36;50.45;95918.59;5048138;28;20033;-73
2022/05/08 00:40:58;;;;;;;5.28;2.60;;;;;;;10.38;50.12;95913.91;5047192;28;20028;-74
2022/05/08 00:43:24;;;;;;;4.05;2.58;;;;;;;10.42;50.27;95913.56;5047828;28;20017;-73
2022/05/08 00:45:50;;;;;;;4.53;2.42;;;;;;;10.25;50.31;95913.53;5047319;28;20029;-73
2022/05/08 00:48:15;;;;;;;4.22;2.63;;;;;;;10.23;50.31;95913.69;5065152;28;20514;-74
2022/05/08 00:50:40;;;;;;;5.95;2.75;;;;;;;10.17;50.64;95910.81;5065355;28;20020;-74
2022/05/08 00:53:06;;;;;;;4.35;2.45;;;;;;;10.21;50.72;95906.81;5030325;28;20063;-75
2022/05/08 00:55:31;;;;;;;6.82;2.70;;;;;;;10.20;49.99;95908.66;5047409;28;20025;-73
2022/05/08 00:58:00;;;;;;;6.55;3.05;;;;;;;10.22;50.20;95908.50;5046996;28;20028;-75
2022/05/08 01:00:25;;;;;;;5.95;3.10;;;;;;;10.19;49.86;95915.00;5065279;28;20515;-74
2022/05/08 01:02:51;;;;;;;7.85;2.70;;;;;;;10.14;50.41;95912.81;5030391;28;20050;-73
2022/05/08 01:05:16;;;;;;;4.55;2.55;;;;;;;10.12;50.68;95916.69;5030338;28;20043;-73
2022/05/08 01:07:41;;;;;;;6.28;2.85;;;;;;;10.06;50.84;95910.09;5030196;28;20032;-73
2022/05/08 01:10:08;;;;;;;5.13;2.60;;;;;;;10.01;50.57;95912.47;5046629;28;20024;-74
2022/05/08 01:12:34;;;;;;;5.65;2.60;;;;;;;9.96;50.97;95907.56;5064931;28;20423;-73
2022/05/08 01:15:13;;;;;;;4.60;2.80;;;;;;;9.95;50.80;95905.03;5013690;28;20498;-75
2022/05/08 01:17:38;;;;;;;8.90;3.22;;;;;;;9.91;51.00;95907.22;5047192;28;20025;-73
2022/05/08 01:20:05;;;;;;;4.93;2.55;;;;;;;9.84;50.78;95911.53;5064582;28;20035;-73
2022/05/08 01:22:31;;;;;;;4.10;2.78;;;;;;;9.80;51.33;95905.66;5030625;28;20392;-73
2022/05/08 01:24:57;;;;;;;4.35;2.70;;;;;;;9.82;51.20;95900.16;5046615;28;20020;-73
2022/05/08 01:27:23;;;;;;;5.93;3.17;;;;;;;9.80;50.93;95902.16;5046849;28;20051;-74
2022/05/08 01:29:48;;;;;;;6.60;3.03;;;;;;;9.80;51.00;95899.47;5064838;28;20032;-73
2022/05/08 01:32:14;;;;;;;4.57;2.90;;;;;;;9.70;51.16;95910.31;5064456;28;20753;-74
2022/05/08 01:34:39;;;;;;;5.90;3.28;;;;;;;9.79;50.94;95909.34;5064762;28;20031;-74
2022/05/08 01:37:05;;;;;;;7.53;3.10;;;;;;;9.72;51.13;95913.66;5064685;28;20107;-74
2022/05/08 01:39:30;;;;;;;7.30;3.17;;;;;;;9.71;50.51;95902.09;5064900;28;20025;-74
2022/05/08 01:41:55;;;;;;;10.23;3.20;;;;;;;9.62;51.37;95903.88;5064537;28;20027;-73
2022/05/08 01:44:23;;;;;;;5.70;2.83;;;;;;;9.61;50.94;95901.38;5047369;28;20035;-73
2022/05/08 01:46:48;;;;;;;7.18;3.30;;;;;;;9.56;50.63;95898.34;5053357;28;20029;-74
2022/05/08 01:49:14;;;;;;;4.28;2.83;;;;;;;9.52;50.66;95893.31;5052926;28;20533;-74
2022/05/08 01:51:39;;;;;;;5.20;3.10;;;;;;;9.52;50.48;95887.97;5053161;28;20339;-73
2022/05/08 01:54:05;;;;;;;6.45;3.15;;;;;;;9.50;50.42;95894.44;5070834;28;20028;-73
2022/05/08 01:56:31;;;;;;;6.85;2.83;;;;;;;9.47;50.67;95894.78;5053651;28;20074;-74
2022/05/08 01:58:56;;;;;;;8.30;3.15;;;;;;;9.42;50.60;95897.94;5071153;28;20020;-73
2022/05/08 02:01:22;;;;;;;6.03;2.97;;;;;;;9.39;50.84;95893.75;5070800;28;20407;-73
2022/05/08 02:03:47;;;;;;;4.82;2.65;;;;;;;9.41;50.37;95890.91;5036463;28;20024;-74
2022/05/08 02:06:15;;;;;;;8.60;3.13;;;;;;;9.42;50.95;95894.41;5036200;28;20033;-73
2022/05/08 02:08:41;;;;;;;6.85;3.30;;;;;;;9.40;50.92;95894.56;5036428;28;20090;-73
2022/05/08 02:11:06;;;;;;;8.25;3.17;;;;;;;9.38;50.91;95885.88;5071358;28;20020;-73
2022/05/08 02:13:32;;;;;;;7.20;3.40;;;;;;;9.27;51.07;95882.44;5070924;28;20020;-74
2022/05/08 02:15:58;;;;;;;7.43;3.20;;;;;;;9.30;51.41;95892.03;5053089;28;20461;-73
2022/05/08 02:18:23;;;;;;;6.90;3.50;;;;;;;9.28;51.52;95892.16;5071079;28;20031;-73
2022/05/08 02:20:49;;;;;;;5.70;2.90;;;;;;;9.24;51.37;95881.91;5036298;28;20443;-73
2022/05/08 02:23:14;;;;;;;5.65;3.20;;;;;;;9.26;51.35;95886.13;5070827;28;20020;-73
2022/05/08 02:25:40;;;;;;;5.47;2.83;;;;;;;9.22;51.52;95886.59;5019660;28;20454;-74
2022/05/08 02:28:06;;;;;;;9.23;4.05;;;;;;;9.08;51.83;95882.66;5053021;28;20029;-74
2022/05/08 02:30:31;;;;;;;5.93;3.30;;;;;;;9.12;51.58;95892.91;5036120;28;20469;-73
2022/05/08 02:32:57;;;;;;;4.45;2.88;;;;;;;9.05;51.52;95885.63;5052932;28;20036;-74
2022/05/08 02:35:23;;;;;;;4.80;3.03;;;;;;;8.99;51.51;95885.28;5053148;28;20028;-74
2022/05/08 02:37:53;;;;;;;5.78;3.13;;;;;;;9.01;51.19;95885.13;5070870;28;20385;-73
2022/05/08 02:40:19;;;;;;;6.75;3.50;;;;;;;8.97;51.35;95886.41;5070763;28;20039;-74
2022/05/08 02:42:44;;;;;;;5.15;3.10;;;;;;;8.90;51.59;95888.88;5052916;28;20025;-73
2022/05/08 02:45:10;;;;;;;9.68;3.65;;;;;;;8.96;50.95;95887.44;5036128;28;20025;-73
2022/05/08 02:47:36;;;;;;;8.77;3.63;;;;;;;8.87;51.66;95881.16;5052353;28;20032;-75
2022/05/08 02:50:03;;;;;;;5.97;3.60;;;;;;;8.85;51.67;95885.84;5053013;28;20029;-74
2022/05/08 02:52:28;;;;;;;5.40;3.30;;;;;;;8.80;51.41;95883.63;5035982;28;20093;-74
2022/05/08 02:54:54;;;;;;;9.93;3.60;;;;;;;8.62;51.74;95892.50;5052646;28;20033;-74
2022/05/08 03:00:07;;;;;;;6.15;3.95;;;;;;;8.59;52.99;95890.13;5067338;28;20178;-72
2022/05/08 03:02:33;;;;;;;6.78;3.63;;;;;;;8.59;53.59;95895.47;5032566;28;20029;-73
2022/05/08 03:04:59;;;;;;;12.85;4.03;;;;;;;8.56;54.09;95898.44;5016388;28;20577;-73
2022/05/08 03:07:24;;;;;;;7.35;3.92;;;;;;;8.51;54.31;95896.19;5067111;28;20226;-74
2022/05/08 03:09:50;;;;;;;5.88;3.50;;;;;;;8.42;54.46;95899.78;5049592;28;20537;-73
2022/05/08 03:12:15;;;;;;;6.68;4.20;;;;;;;8.40;54.39;95899.09;5049226;28;20204;-73
2022/05/08 03:14:40;;;;;;;8.35;3.85;;;;;;;8.39;54.57;95895.59;5049038;28;20020;-74
2022/05/08 03:17:06;;;;;;;8.45;4.38;;;;;;;8.41;54.45;95900.81;5067137;28;20028;-73
2022/05/08 03:19:32;;;;;;;9.38;4.07;;;;;;;8.34;54.06;95897.03;5048785;28;20029;-73
2022/05/08 03:21:57;;;;;;;6.28;4.30;;;;;;;8.01;55.44;95900.22;5049167;28;20020;-74
2022/05/08 03:24:23;;;;;;;7.18;4.05;;;;;;;8.06;55.58;95905.09;5066934;28;20024;-74
2022/05/08 03:26:48;;;;;;;8.40;4.65;;;;;;;8.04;55.80;95905.25;5032195;28;20032;-74
2022/05/08 03:29:14;;;;;;;6.35;3.95;;;;;;;8.00;55.69;95910.03;5049041;28;20498;-73
2022/05/08 03:31:39;;;;;;;5.18;3.75;;;;;;;8.06;55.83;95908.59;5048984;28;20031;-74
2022/05/08 03:34:05;;;;;;;8.40;4.53;;;;;;;8.04;56.00;95900.72;5066648;28;20032;-73
2022/05/08 03:36:30;;;;;;;9.25;4.90;;;;;;;8.02;56.25;95907.22;5049103;28;20078;-74
2022/05/08 03:38:56;;;;;;;6.38;4.22;;;;;;;8.06;56.12;95913.94;5066424;28;20032;-74
2022/05/08 03:41:21;;;;;;;10.77;5.20;;;;;;;8.08;56.27;95913.78;5048661;28;20036;-74
2022/05/08 03:43:47;;;;;;;7.47;4.05;;;;;;;8.11;55.65;95914.34;5048419;28;20020;-74
2022/05/08 03:46:13;;;;;;;6.82;4.43;;;;;;;8.19;56.00;95913.59;5048519;28;20031;-74
2022/05/08 03:48:38;;;;;;;15.35;5.05;;;;;;;8.22;56.20;95923.16;5066430;28;20055;-74
2022/05/08 03:51:04;;;;;;;8.30;4.43;;;;;;;8.27;56.15;95915.53;5048862;28;20393;-73
2022/05/08 03:53:29;;;;;;;6.18;4.38;;;;;;;8.31;55.45;95921.41;5066538;28;20033;-73
2022/05/08 03:55:55;;;;;;;8.15;4.75;;;;;;;8.31;56.14;95921.41;5066305;28;20024;-74
2022/05/08 03:58:20;;;;;;;6.47;4.22;;;;;;;8.26;56.57;95921.84;5066365;28;20071;-75
2022/05/08 04:00:45;;;;;;;10.10;4.63;;;;;;;8.25;56.21;95922.84;5065900;28;20580;-74
2022/05/08 04:03:11;;;;;;;6.75;4.65;;;;;;;8.32;56.77;95920.41;5066137;28;20032;-74
2022/05/08 04:05:36;;;;;;;10.00;4.55;;;;;;;8.37;56.71;95920.78;5066226;28;20529;-74
2022/05/08 04:08:02;;;;;;;8.30;5.00;;;;;;;8.44;56.14;95916.53;5065693;28;20020;-73
2022/05/08 04:10:27;;;;;;;8.90;4.60;;;;;;;8.63;55.35;95920.91;5066230;28;20032;-74
2022/05/08 04:12:53;;;;;;;9.73;4.50;;;;;;;8.81;54.93;95927.25;5031115;28;20031;-74
2022/05/08 04:18:02;;;;;;;8.43;4.63;;;;;;;9.01;55.61;95934.09;5050767;28;20070;-73
2022/05/08 04:20:28;;;;;;;8.73;4.97;;;;;;;9.18;55.46;95933.41;5047944;28;20025;-74
2022/05/08 04:25:37;;;;;;;7.40;4.60;;;;;;;9.65;54.62;95932.22;5066044;28;20120;-74
2022/05/08 04:28:02;;;;;;;10.13;4.72;;;;;;;9.86;54.45;95933.66;5066067;28;20020;-74
2022/05/08 04:30:28;;;;;;;7.35;4.45;;;;;;;9.91;54.36;95931.34;5047893;28;20115;-74
2022/05/08 04:32:53;;;;;;;7.10;4.53;;;;;;;10.05;53.90;95929.88;5047479;28;20475;-73
2022/05/08 04:35:19;;;;;;;5.95;4.28;;;;;;;10.22;51.46;95928.09;5065629;28;20031;-73
2022/05/08 04:37:44;;;;;;;6.95;4.30;;;;;;;10.29;51.03;95935.47;5047493;28;20020;-75
2022/05/08 04:40:11;;;;;;;7.70;4.47;;;;;;;10.47;50.58;95933.56;5065317;28;20022;-74
2022/05/08 04:42:36;;;;;;;9.10;4.60;;;;;;;10.47;50.94;95938.09;5065613;28;20062;-74
2022/05/08 04:45:02;;;;;;;13.52;5.47;;;;;;;10.62;50.36;95928.38;5065537;28;20498;-73
2022/05/08 04:47:28;;;;;;;9.50;4.65;;;;;;;10.72;49.12;95936.28;5065269;28;20032;-74
2022/05/08 04:49:53;;;;;;;9.15;5.07;;;;;;;10.79;49.71;95936.47;5047374;28;20032;-74
2022/05/08 04:52:18;;;;;;;7.90;4.93;;;;;;;10.74;49.24;95931.59;5047388;28;20024;-74
2022/05/08 04:54:44;;;;;;;6.65;4.63;;;;;;;11.03;48.47;95947.41;5030610;28;20105;-74
2022/05/08 04:57:09;;;;;;;6.75;4.43;;;;;;;11.24;47.68;95945.03;5047533;28;20028;-74
2022/05/08 04:59:35;;;;;;;10.27;5.57;;;;;;;11.56;47.55;95941.66;5047178;28;20533;-74
2022/05/08 05:02:02;;;;;;;8.20;4.43;;;;;;;11.77;46.38;95942.97;5046849;28;20049;-75
2022/05/08 05:04:28;;;;;;;8.65;4.15;;;;;;;11.69;46.16;95947.31;5047440;28;20062;-74
2022/05/08 05:06:53;;;;;;;8.18;4.55;;;;;;;11.98;45.89;95942.38;5047387;28;20403;-74
2022/05/08 05:09:18;;;;;;;7.03;4.28;;;;;;;12.04;44.44;95946.22;5064884;28;20371;-74
2022/05/08 05:11:44;;;;;;;8.68;4.00;;;;;;;12.24;45.19;95938.59;5065178;28;20479;-74
2022/05/08 05:14:09;;;;;;;8.27;4.20;;;;;;;12.16;44.06;95942.19;5064590;28;20024;-73
2022/05/08 05:16:35;;;;;;;6.03;3.97;;;;;;;12.21;44.52;95942.50;5064850;28;20028;-74
2022/05/08 05:19:00;;;;;;;8.40;3.83;;;;;;;12.62;44.22;95943.31;5064333;28;20021;-73
2022/05/08 05:21:25;;;;;;;7.10;3.80;;;;;;;12.95;42.42;95942.22;5064767;28;20020;-73
2022/05/08 05:23:51;;;;;;;7.35;3.47;;;;;;;13.30;41.90;95941.81;5065086;28;20040;-74
2022/05/08 05:26:16;;;;;;;5.28;3.40;;;;;;;13.41;40.34;95943.22;5046606;28;20032;-74
2022/05/08 05:28:44;;;;;;;5.85;3.20;;;;;;;13.58;39.39;95939.38;5030538;28;20023;-74
2022/05/08 05:31:09;;;;;;;5.90;3.22;;;;;;;13.71;39.68;95938.75;5064759;28;20063;-74
2022/05/08 05:33:35;;;;;;;5.80;3.67;;;;;;;13.74;38.20;95939.38;5064802;28;20040;-74
2022/05/08 05:36:00;;;;;;;9.00;3.10;;;;;;;14.01;37.90;95942.50;5064776;28;20017;-74
2022/05/08 05:38:25;;;;;;;7.97;3.45;;;;;;;13.96;37.48;95937.66;5064454;28;20122;-73
2022/05/08 05:40:51;;;;;;;4.07;3.15;;;;;;;14.19;37.25;95942.94;5064912;28;20407;-74
2022/05/08 05:43:16;;;;;;;6.93;2.88;;;;;;;14.08;37.16;95946.09;5064880;28;20020;-74
2022/05/08 05:45:42;;;;;;;6.85;3.13;;;;;;;14.40;36.68;95937.78;5065072;28;20021;-76
2022/05/08 05:48:08;;;;;;;10.50;3.20;;;;;;;14.53;36.50;95942.50;5064873;28;20025;-75
2022/05/08 05:50:34;;;;;;;10.80;3.38;;;;;;;14.56;35.05;95942.97;5046763;28;20028;-75
2022/05/08 05:52:59;;;;;;;6.38;3.60;;;;;;;14.33;35.33;95940.41;5064465;28;20033;-75
2022/05/08 05:55:25;;;;;;;8.93;3.03;;;;;;;14.20;36.31;95946.47;5029395;28;20048;-75
2022/05/08 05:57:50;;;;;;;5.28;3.15;;;;;;;14.54;35.14;95931.53;5064242;28;20454;-75
2022/05/08 06:00:17;;;;;;;6.13;2.83;;;;;;;14.69;35.47;95930.66;5064218;28;20028;-74
2022/05/08 06:02:44;;;;;;;4.80;2.72;;;;;;;14.99;35.03;95932.44;5064437;28;20109;-74
2022/05/08 06:05:10;;;;;;;7.75;3.22;;;;;;;15.11;33.75;95930.06;5029803;28;20032;-76
2022/05/08 06:07:36;;;;;;;4.80;2.80;;;;;;;15.21;33.50;95927.88;5029897;28;20082;-74
2022/05/08 06:10:03;;;;;;;8.50;3.00;;;;;;;15.13;33.59;95928.84;5064339;28;20025;-74
2022/05/08 06:12:29;;;;;;;10.02;3.38;;;;;;;15.27;34.31;95932.50;5064411;28;20032;-75
2022/05/08 06:14:54;;;;;;;8.40;3.10;;;;;;;15.44;34.49;95922.22;5046186;28;20029;-74
2022/05/08 06:17:20;;;;;;;6.35;3.03;;;;;;;15.16;34.13;95923.06;5045769;28;20388;-75
2022/05/08 06:19:45;;;;;;;5.85;2.83;;;;;;;15.36;34.71;95922.41;5046063;28;20074;-74
2022/05/08 06:22:11;;;;;;;5.07;3.38;;;;;;;15.57;33.41;95920.69;5046107;28;20025;-75
2022/05/08 06:24:36;;;;;;;6.28;2.63;;;;;;;15.70;32.67;95918.06;5029832;28;20021;-75
2022/05/08 06:27:02;;;;;;;5.78;2.72;;;;;;;15.79;32.54;95926.03;5046101;28;20032;-74
2022/05/08 06:29:27;;;;;;;9.27;3.10;;;;;;;15.86;33.16;95926.91;5046159;28;20027;-75
2022/05/08 06:31:54;;;;;;;6.63;3.35;;;;;;;15.98;32.69;95929.06;5066251;28;20016;-74
2022/05/08 06:34:19;;;;;;;7.93;2.90;;;;;;;16.08;32.63;95923.31;5067509;28;20115;-74
2022/05/08 06:36:45;;;;;;;6.35;2.95;;;;;;;16.11;32.10;95917.50;5032725;28;20032;-74
2022/05/08 06:39:10;;;;;;;6.95;3.05;;;;;;;15.94;32.94;95917.81;5049842;28;20029;-76
2022/05/08 06:41:39;;;;;;;7.35;2.90;;;;;;;15.96;34.46;95914.91;5067869;28;20028;-74
2022/05/08 06:44:04;;;;;;;4.22;2.70;;;;;;;16.05;33.71;95917.28;5067723;28;20115;-75
2022/05/08 06:46:35;;;;;;;5.47;3.00;;;;;;;16.22;32.87;95913.41;5033228;28;20144;-74
2022/05/08 06:49:01;;;;;;;6.63;3.30;;;;;;;15.82;33.84;95904.84;5067584;28;20031;-74
2022/05/08 06:51:27;;;;;;;5.35;3.20;;;;;;;16.04;34.30;95906.66;5032894;28;20029;-74
2022/05/08 06:53:52;;;;;;;7.10;3.22;;;;;;;16.33;33.26;95904.69;5049342;28;20086;-74
2022/05/08 06:56:18;;;;;;;6.95;3.47;;;;;;;16.44;33.24;95903.28;5049157;28;20419;-74
2022/05/08 07:01:38;;;;;;;7.28;2.92;;;;;;;16.64;31.77;95899.78;5051817;28;20974;-73
2022/05/08 07:04:10;;;;;;;5.10;2.80;;;;;;;16.77;32.19;95901.72;5067295;28;20025;-74
2022/05/08 07:06:36;;;;;;;8.00;3.00;;;;;;;16.83;32.11;95884.63;5033113;28;20021;-75
2022/05/08 07:09:02;;;;;;;8.20;2.80;;;;;;;16.96;32.63;95888.41;5049319;28;20024;-74
2022/05/08 07:11:28;;;;;;;4.38;2.40;;;;;;;16.63;33.29;95892.72;5032750;28;20040;-74
2022/05/08 07:13:53;;;;;;;7.32;3.25;;;;;;;16.17;34.93;95900.44;5048659;28;20445;-75
2022/05/08 07:16:19;;;;;;;6.55;3.13;;;;;;;16.18;34.85;95889.47;5049169;28;20024;-75
2022/05/08 07:18:44;;;;;;;6.13;3.10;;;;;;;16.24;35.13;95892.38;5066823;28;20035;-75
2022/05/08 07:21:10;;;;;;;7.00;3.00;;;;;;;16.30;34.52;95886.16;5049293;28;20440;-74
2022/05/08 07:23:35;;;;;;;5.72;2.72;;;;;;;16.56;33.38;95889.97;5066648;28;20028;-74
2022/05/08 07:26:00;;;;;;;8.05;3.70;;;;;;;16.82;33.67;95885.69;5032318;28;20017;-74
2022/05/08 07:28:27;;;;;;;7.68;3.20;;;;;;;17.12;32.86;95885.31;5048750;28;20032;-74
2022/05/08 07:30:53;;;;;;;4.07;2.80;;;;;;;17.24;32.79;95884.72;5048799;28;20031;-74
2022/05/08 07:33:19;;;;;;;8.40;2.85;;;;;;;17.41;32.87;95882.44;5032227;28;20028;-76
2022/05/08 07:38:29;;;;;;;6.47;2.97;;;;;;;17.32;32.82;95879.09;5052076;28;20102;-76
2022/05/08 07:40:54;;;;;;;6.97;2.80;;;;;;;17.50;32.85;95880.31;5048598;28;20028;-74
2022/05/08 07:43:20;;;;;;;7.22;3.28;;;;;;;17.67;34.37;95880.72;5047618;28;20428;-76
2022/05/08 07:45:45;;;;;;;6.18;2.75;;;;;;;17.78;31.71;95874.63;5066214;28;20029;-74
2022/05/08 07:48:11;;;;;;;6.50;3.03;;;;;;;17.85;31.97;95876.50;5048226;28;20106;-73
2022/05/08 07:50:36;;;;;;;5.70;3.15;;;;;;;17.92;31.60;95871.91;5032304;28;20112;-75
2022/05/08 07:53:02;;;;;;;6.80;2.88;;;;;;;17.85;31.75;95866.50;5048038;28;20051;-74
2022/05/08 07:55:28;;;;;;;7.45;3.28;;;;;;;17.96;31.47;95867.72;5048640;28;20032;-74
2022/05/08 07:57:53;;;;;;;10.43;2.97;;;;;;;18.01;33.17;95872.50;5066454;28;20020;-73
2022/05/08 08:00:19;;;;;;;6.45;3.42;;;;;;;18.17;32.16;95865.78;5066472;28;20025;-77
2022/05/08 08:02:44;;;;;;;8.43;2.90;;;;;;;18.09;31.49;95868.75;5031113;28;20094;-74
2022/05/08 08:05:10;;;;;;;6.07;2.78;;;;;;;17.65;31.27;95861.13;5066170;28;20029;-75
2022/05/08 08:07:36;;;;;;;5.68;2.90;;;;;;;17.36;32.51;95869.47;5031559;28;20082;-74
2022/05/08 08:10:03;;;;;;;6.35;3.45;;;;;;;17.36;32.57;95864.06;5031668;28;20510;-74
2022/05/08 08:12:28;;;;;;;4.65;2.95;;;;;;;17.33;32.98;95859.06;5048650;28;20044;-74
2022/05/08 08:14:53;;;;;;;7.72;3.22;;;;;;;17.59;31.76;95856.53;5065635;28;20028;-76
2022/05/08 08:17:19;;;;;;;6.45;3.25;;;;;;;17.74;32.54;95859.00;5048235;28;20020;-76
2022/05/08 08:19:44;;;;;;;5.05;3.13;;;;;;;17.62;34.00;95858.84;5066013;28;20024;-75
2022/05/08 08:22:10;;;;;;;7.05;3.40;;;;;;;17.82;33.89;95860.66;5048123;28;20044;-74
2022/05/08 08:24:36;;;;;;;4.97;3.10;;;;;;;18.03;32.03;95857.69;5047704;28;20471;-75
2022/05/08 08:27:02;;;;;;;7.32;3.30;;;;;;;18.04;33.02;95847.63;5065295;28;20325;-75
2022/05/08 08:29:27;;;;;;;6.13;3.25;;;;;;;17.98;32.04;95848.50;5047813;28;20024;-75
2022/05/08 08:31:53;;;;;;;12.10;3.47;;;;;;;17.78;32.46;95847.50;5047613;28;20040;-75
2022/05/08 08:34:18;;;;;;;7.82;3.38;;;;;;;18.00;32.91;95849.97;5048054;28;20028;-75
2022/05/08 08:36:44;;;;;;;4.68;3.08;;;;;;;17.97;32.60;95846.84;5065706;28;20020;-74
2022/05/08 08:39:09;;;;;;;5.95;3.20;;;;;;;18.02;32.18;95838.91;5047583;28;20024;-75
2022/05/08 08:41:35;;;;;;;12.93;3.95;;;;;;;18.13;32.17;95840.13;5030819;28;20051;-74
2022/05/08 08:49:42;;;;;;;5.53;3.30;;;;;;;18.45;31.63;95836.63;5036132;28;20066;-74
2022/05/08 08:52:07;;;;;;;5.05;3.30;;;;;;;18.71;31.69;95835.66;5030736;28;20036;-74
2022/05/08 08:54:33;;;;;;;7.13;3.58;;;;;;;18.79;31.87;95834.56;5030362;28;20028;-74
2022/05/08 08:56:58;;;;;;;7.78;3.72;;;;;;;18.75;32.39;95836.03;5047353;28;20048;-74
2022/05/08 08:59:24;;;;;;;6.25;3.28;;;;;;;18.73;32.00;95832.72;5046797;28;20489;-74
2022/05/08 09:01:49;;;;;;;5.25;3.15;;;;;;;18.73;32.20;95832.72;5046869;28;20032;-75
2022/05/08 09:04:15;;;;;;;3.92;2.78;;;;;;;18.95;31.80;95835.06;5046828;28;20032;-77
2022/05/08 09:06:44;;;;;;;4.88;3.15;;;;;;;18.60;32.78;95826.34;5030563;28;20551;-75
2022/05/08 09:09:23;;;;;;;4.80;3.25;;;;;;;18.71;33.80;95823.97;5065110;28;20483;-75
2022/05/08 09:11:49;;;;;;;4.63;3.33;;;;;;;18.82;33.39;95825.97;5064870;28;20024;-75
2022/05/08 09:14:46;;;;;;;6.70;2.92;;;;;;;19.04;33.01;95820.16;5046606;28;20033;-74
2022/05/08 09:17:12;;;;;;;4.85;2.47;;;;;;;19.08;32.17;95815.97;5030622;28;20124;-75
2022/05/08 09:19:38;;;;;;;5.38;3.47;;;;;;;19.25;31.78;95812.69;5046953;28;20024;-75
2022/05/08 09:22:08;;;;;;;7.68;3.72;;;;;;;19.27;31.70;95805.16;5047428;28;20055;-75
2022/05/08 09:24:35;;;;;;;6.93;3.00;;;;;;;19.02;31.57;95814.13;5047308;28;20025;-75
2022/05/08 09:27:16;;;;;;;6.80;2.95;;;;;;;19.08;32.39;95807.81;5065313;28;20027;-75
2022/05/08 09:29:42;;;;;;;8.90;3.60;;;;;;;19.24;32.54;95805.59;5064857;28;20028;-75
2022/05/08 09:32:08;;;;;;;5.75;3.00;;;;;;;19.21;31.30;95808.75;5030525;28;20024;-76
2022/05/08 09:34:57;;;;;;;4.68;3.22;;;;;;;19.14;33.38;95806.94;5064668;28;20037;-74
2022/05/08 09:37:25;;;;;;;4.80;3.00;;;;;;;19.36;32.30;95808.44;5041343;28;20053;-74
2022/05/08 09:39:51;;;;;;;8.63;2.78;;;;;;;19.37;30.99;95804.66;5046967;28;20033;-76
2022/05/08 09:42:36;;;;;;;4.05;3.22;;;;;;;19.38;32.18;95804.41;5030039;28;20029;-75
2022/05/08 09:45:08;;;;;;;5.55;2.88;;;;;;;19.30;31.07;95796.53;5046828;28;20104;-74
2022/05/08 09:47:41;;;;;;;4.68;3.05;;;;;;;19.30;32.00;95787.56;5046957;28;20079;-76
2022/05/08 09:50:07;;;;;;;5.20;2.53;;;;;;;19.37;31.81;95782.88;5064609;28;20072;-76
2022/05/08 09:52:34;;;;;;;8.65;3.08;;;;;;;19.31;31.57;95784.63;5046854;28;20054;-74
2022/05/08 09:55:01;;;;;;;4.22;2.45;;;;;;;19.41;30.76;95772.41;5029980;28;20457;-75
2022/05/08 09:57:27;;;;;;;5.05;2.63;;;;;;;19.58;30.55;95778.06;5029930;28;20037;-76
2022/05/08 09:59:52;;;;;;;8.80;2.95;;;;;;;19.73;29.40;95764.91;5064091;28;20071;-75
2022/05/08 10:02:18;;;;;;;5.72;3.00;;;;;;;19.86;28.80;95763.94;5063528;28;20040;-75
2022/05/08 10:04:44;;;;;;;9.32;2.67;;;;;;;19.83;28.13;95756.22;5029842;28;20024;-75
2022/05/08 10:07:11;;;;;;;7.68;2.47;;;;;;;19.94;28.88;95759.25;5032835;28;20024;-75
2022/05/08 10:15:30;;;;;;;4.70;2.47;;;;;;;20.26;25.83;95748.19;5039062;28;20101;-74
2022/05/08 10:18:21;;;;;;;7.50;2.50;;;;;;;20.09;25.64;95756.97;5068552;28;20032;-74
2022/05/08 10:21:07;;;;;;;4.80;2.28;;;;;;;20.08;26.64;95749.88;5050222;28;20017;-75
2022/05/08 10:23:39;;;;;;;3.63;1.92;;;;;;;20.19;24.63;95755.59;5050174;28;20403;-76
2022/05/08 10:26:18;;;;;;;;;;;;;;;20.15;21.38;95741.63;5068921;28;20024;-74
2022/05/08 10:29:01;;;;;;;3.38;1.67;;;;;;;20.18;22.14;95740.31;5033374;28;19912;-75
2022/05/08 10:31:46;;;;;;;4.78;1.65;;;;;;;20.23;22.16;95741.28;5068088;28;20044;-75
2022/05/08 10:34:12;;;;;;;3.33;1.55;;;;;;;20.22;22.03;95734.19;5049857;28;20056;-74
2022/05/08 10:36:38;;;;;;;2.80;1.80;;;;;;;20.26;21.88;95731.84;5049877;28;20110;-75
2022/05/08 10:39:42;;;;;;;2.90;1.30;;;;;;;20.33;19.66;95723.56;5067935;28;20491;-74
2022/05/08 10:42:29;;;;;;;4.22;1.90;;;;;;;20.45;21.93;95731.75;5064610;28;20044;-75
2022/05/08 10:44:55;;;;;;;4.80;1.60;;;;;;;20.52;20.24;95724.34;5067775;28;20037;-74
2022/05/08 10:47:33;;;;;;;2.40;1.50;;;;;;;20.53;20.94;95708.81;5049817;28;20045;-74
2022/05/08 10:50:04;;;;;;;2.92;1.73;;;;;;;20.49;20.18;95717.44;5067818;28;20033;-74
2022/05/08 10:52:33;;;;;;;4.28;1.48;;;;;;;20.40;19.84;95707.94;5033310;28;20035;-74
2022/05/08 10:54:59;;;;;;;4.05;1.45;;;;;;;20.55;20.25;95718.41;5050313;28;20032;-74
2022/05/08 10:57:31;;;;;;;3.05;1.80;;;;;;;20.62;20.83;95710.13;5033346;28;20108;-74
2022/05/08 10:59:57;;;;;;;4.28;1.90;;;;;;;20.74;22.11;95708.25;5067505;28;20128;-74
2022/05/08 11:02:50;;;;;;;4.43;1.80;;;;;;;20.74;22.78;95700.09;5049372;28;20049;-74
2022/05/08 11:05:18;;;;;;;4.97;1.80;;;;;;;20.88;21.86;95697.97;5060137;28;20044;-75
2022/05/08 11:07:51;;;;;;;2.38;1.52;;;;;;;20.99;22.61;95692.75;5049464;28;20422;-76
2022/05/08 11:10:23;;;;;;;4.30;1.73;;;;;;;21.00;20.78;95699.88;5050017;28;20023;-75
2022/05/08 11:13:11;;;;;;;2.85;1.90;;;;;;;21.04;20.76;95684.69;5049969;28;20028;-75
2022/05/08 11:15:43;;;;;;;10.98;7.43;;;;;;;21.12;20.53;95687.06;5033410;28;20028;-75
2022/05/08 11:18:24;;;;;;;9.13;5.43;;;;;;;21.31;21.53;95686.94;5048838;28;20033;-75
2022/05/08 11:20:53;;;;;;;30.60;20.48;;;;;;;21.48;19.15;95681.56;5049068;28;20024;-74
2022/05/08 11:23:22;;;;;;;13.90;9.27;;;;;;;21.57;16.16;95682.03;5067323;28;20115;-75
2022/05/08 11:25:49;;;;;;;9.55;7.15;;;;;;;21.64;15.46;95689.22;5049405;28;20032;-75
2022/05/08 11:28:16;;;;;;;6.45;3.90;;;;;;;21.64;17.38;95681.03;5048882;28;20028;-74
2022/05/08 11:30:42;;;;;;;5.00;3.40;;;;;;;21.83;17.18;95673.53;5049236;28;20086;-74
2022/05/08 11:36:04;;;;;;;26.67;18.10;;;;;;;21.96;15.48;95677.88;5066819;28;20123;-75
2022/05/08 11:38:50;;;;;;;62.35;40.00;;;;;;;22.05;15.33;95676.44;5050623;28;20036;-74
2022/05/08 11:41:22;;;;;;;38.42;26.45;;;;;;;22.08;14.35;95666.94;5065346;28;20016;-74
2022/05/08 11:43:49;;;;;;;29.48;19.48;;;;;;;22.07;15.10;95674.28;5049291;28;20037;-76
2022/05/08 11:46:19;;;;;;;7.18;3.83;;;;;;;22.16;14.25;95672.00;5065278;28;20499;-74
2022/05/08 11:48:48;;;;;;;17.92;11.68;;;;;;;22.13;15.19;95660.72;5032437;28;20016;-75
2022/05/08 11:51:14;;;;;;;36.47;23.88;;;;;;;22.25;16.15;95664.22;5048599;28;20479;-74
2022/05/08 11:53:44;;;;;;;22.38;14.77;;;;;;;22.31;15.97;95660.50;5066691;28;20054;-74
2022/05/08 11:56:28;;;;;;;11.32;6.30;;;;;;;22.35;15.17;95664.41;5066197;28;20129;-75
2022/05/08 11:58:57;;;;;;;3.15;1.20;;;;;;;22.44;14.80;95662.09;5066116;28;20020;-74
2022/05/08 12:01:30;;;;;;;2.65;1.10;;;;;;;22.51;15.19;95656.47;5048521;28;20542;-76
2022/05/08 12:03:57;;;;;;;7.03;3.53;;;;;;;22.42;15.73;95663.41;5065764;28;20036;-74